sensor_id;sensor_type;location;lat;lon;timestamp;P1;durP1;ratioP1;P2;durP2;ratioP2
15246;SDS011;7726;48.820;9.248;2023-04-07T00:00:39;6.27;;;5.63;;
15246;SDS011;7726;48.820;9.248;2023-04-07T00:03:06;9.17;;;5.73;;
15246;SDS011;7726;48.820;9.248;2023-04-07T00:05:33;6.80;;;5.23;;
15246;SDS011;7726;48.820;9.248;2023-04-07T00:08:00;6.50;;;5.63;;
15246;SDS011;7726;48.820;9.248;2023-04-07T00:10:28;6.10;;;5.50;;
15246;SDS011;7726;48.820;9.248;2023-04-07T00:12:55;7.10;;;5.87;;
15246;SDS011;7726;48.820;9.248;2023-04-07T00:15:22;6.10;;;5.50;;
15246;SDS011;7726;48.820;9.248;2023-04-07T00:17:50;5.33;;;4.83;;
15246;SDS011;7726;48.820;9.248;2023-04-07T00:20:17;5.50;;;4.93;;
15246;SDS011;7726;48.820;9.248;2023-04-07T00:22:45;6.53;;;5.07;;
15246;SDS011;7726;48.820;9.248;2023-04-07T00:25:12;5.80;;;5.20;;
15246;SDS011;7726;48.820;9.248;2023-04-07T00:27:39;4.80;;;4.40;;
15246;SDS011;7726;48.820;9.248;2023-04-07T00:30:06;5.23;;;4.73;;
15246;SDS011;7726;48.820;9.248;2023-04-07T00:32:34;5.60;;;5.00;;
15246;SDS011;7726;48.820;9.248;2023-04-07T00:35:03;5.80;;;5.00;;
15246;SDS011;7726;48.820;9.248;2023-04-07T00:37:30;5.20;;;4.63;;
15246;SDS011;7726;48.820;9.248;2023-04-07T00:39:57;5.47;;;4.93;;
15246;SDS011;7726;48.820;9.248;2023-04-07T00:42:24;5.63;;;5.07;;
15246;SDS011;7726;48.820;9.248;2023-04-07T00:44:51;6.17;;;4.90;;
15246;SDS011;7726;48.820;9.248;2023-04-07T00:47:18;4.83;;;4.33;;
15246;SDS011;7726;48.820;9.248;2023-04-07T00:49:45;5.80;;;4.67;;
15246;SDS011;7726;48.820;9.248;2023-04-07T00:52:14;5.50;;;4.87;;
15246;SDS011;7726;48.820;9.248;2023-04-07T00:54:41;5.30;;;4.80;;
15246;SDS011;7726;48.820;9.248;2023-04-07T00:57:10;5.03;;;4.53;;
15246;SDS011;7726;48.820;9.248;2023-04-07T00:59:38;5.50;;;4.90;;
15246;SDS011;7726;48.820;9.248;2023-04-07T01:02:07;4.77;;;4.27;;
15246;SDS011;7726;48.820;9.248;2023-04-07T01:04:38;5.47;;;4.97;;
15246;SDS011;7726;48.820;9.248;2023-04-07T01:07:08;4.67;;;4.27;;
15246;SDS011;7726;48.820;9.248;2023-04-07T01:09:39;5.30;;;4.80;;
15246;SDS011;7726;48.820;9.248;2023-04-07T01:12:09;7.10;;;4.93;;
15246;SDS011;7726;48.820;9.248;2023-04-07T01:14:39;7.10;;;4.73;;
15246;SDS011;7726;48.820;9.248;2023-04-07T01:17:08;5.90;;;5.23;;
15246;SDS011;7726;48.820;9.248;2023-04-07T01:19:36;6.97;;;5.03;;
15246;SDS011;7726;48.820;9.248;2023-04-07T01:22:05;6.10;;;4.67;;
15246;SDS011;7726;48.820;9.248;2023-04-07T01:24:38;6.53;;;5.90;;
15246;SDS011;7726;48.820;9.248;2023-04-07T01:27:13;7.23;;;5.30;;
15246;SDS011;7726;48.820;9.248;2023-04-07T01:29:42;5.93;;;5.33;;
15246;SDS011;7726;48.820;9.248;2023-04-07T01:32:12;6.63;;;6.00;;
15246;SDS011;7726;48.820;9.248;2023-04-07T01:34:40;7.53;;;5.97;;
15246;SDS011;7726;48.820;9.248;2023-04-07T01:37:07;7.17;;;5.73;;
15246;SDS011;7726;48.820;9.248;2023-04-07T01:39:35;6.80;;;5.77;;
15246;SDS011;7726;48.820;9.248;2023-04-07T01:42:03;5.73;;;5.17;;
15246;SDS011;7726;48.820;9.248;2023-04-07T01:44:32;5.77;;;5.17;;
15246;SDS011;7726;48.820;9.248;2023-04-07T01:47:01;6.40;;;5.70;;
15246;SDS011;7726;48.820;9.248;2023-04-07T01:49:29;6.03;;;5.40;;
15246;SDS011;7726;48.820;9.248;2023-04-07T01:51:56;7.07;;;5.50;;
15246;SDS011;7726;48.820;9.248;2023-04-07T01:54:24;6.00;;;5.40;;
15246;SDS011;7726;48.820;9.248;2023-04-07T01:56:52;6.03;;;5.40;;
15246;SDS011;7726;48.820;9.248;2023-04-07T01:59:20;6.40;;;5.67;;
15246;SDS011;7726;48.820;9.248;2023-04-07T02:01:47;6.00;;;5.40;;
15246;SDS011;7726;48.820;9.248;2023-04-07T02:04:17;6.47;;;5.27;;
15246;SDS011;7726;48.820;9.248;2023-04-07T02:06:49;6.80;;;6.17;;
15246;SDS011;7726;48.820;9.248;2023-04-07T02:09:18;7.17;;;6.47;;
15246;SDS011;7726;48.820;9.248;2023-04-07T02:11:46;8.23;;;7.43;;
15246;SDS011;7726;48.820;9.248;2023-04-07T02:14:13;7.67;;;6.90;;
15246;SDS011;7726;48.820;9.248;2023-04-07T02:16:41;8.63;;;7.70;;
15246;SDS011;7726;48.820;9.248;2023-04-07T02:19:08;6.93;;;6.23;;
15246;SDS011;7726;48.820;9.248;2023-04-07T02:21:37;7.30;;;5.73;;
15246;SDS011;7726;48.820;9.248;2023-04-07T02:24:05;11.97;;;8.97;;
15246;SDS011;7726;48.820;9.248;2023-04-07T02:26:33;7.47;;;6.77;;
15246;SDS011;7726;48.820;9.248;2023-04-07T02:29:00;7.37;;;6.30;;
15246;SDS011;7726;48.820;9.248;2023-04-07T02:31:27;6.63;;;5.90;;
15246;SDS011;7726;48.820;9.248;2023-04-07T02:33:55;6.80;;;5.47;;
15246;SDS011;7726;48.820;9.248;2023-04-07T02:36:22;6.90;;;6.13;;
15246;SDS011;7726;48.820;9.248;2023-04-07T02:38:51;6.67;;;5.47;;
15246;SDS011;7726;48.820;9.248;2023-04-07T02:41:18;7.27;;;6.30;;
15246;SDS011;7726;48.820;9.248;2023-04-07T02:43:46;6.20;;;5.63;;
15246;SDS011;7726;48.820;9.248;2023-04-07T02:46:13;7.87;;;5.47;;
15246;SDS011;7726;48.820;9.248;2023-04-07T02:48:40;5.90;;;5.30;;
15246;SDS011;7726;48.820;9.248;2023-04-07T02:51:07;6.77;;;6.07;;
15246;SDS011;7726;48.820;9.248;2023-04-07T02:53:34;6.93;;;6.07;;
15246;SDS011;7726;48.820;9.248;2023-04-07T02:56:03;7.13;;;6.43;;
15246;SDS011;7726;48.820;9.248;2023-04-07T02:58:31;8.10;;;6.40;;
15246;SDS011;7726;48.820;9.248;2023-04-07T03:00:58;6.43;;;5.83;;
15246;SDS011;7726;48.820;9.248;2023-04-07T03:03:25;7.50;;;6.30;;
15246;SDS011;7726;48.820;9.248;2023-04-07T03:05:52;7.40;;;5.67;;
15246;SDS011;7726;48.820;9.248;2023-04-07T03:08:19;7.77;;;6.53;;
15246;SDS011;7726;48.820;9.248;2023-04-07T03:10:46;7.70;;;5.77;;
15246;SDS011;7726;48.820;9.248;2023-04-07T03:13:15;7.97;;;5.70;;
15246;SDS011;7726;48.820;9.248;2023-04-07T03:15:43;6.90;;;6.17;;
15246;SDS011;7726;48.820;9.248;2023-04-07T03:18:11;7.70;;;6.03;;
15246;SDS011;7726;48.820;9.248;2023-04-07T03:20:38;7.00;;;6.30;;
15246;SDS011;7726;48.820;9.248;2023-04-07T03:23:06;6.93;;;5.70;;
15246;SDS011;7726;48.820;9.248;2023-04-07T03:25:33;8.70;;;6.03;;
15246;SDS011;7726;48.820;9.248;2023-04-07T03:28:00;7.57;;;6.13;;
15246;SDS011;7726;48.820;9.248;2023-04-07T03:30:29;6.70;;;6.00;;
15246;SDS011;7726;48.820;9.248;2023-04-07T03:32:56;7.33;;;6.30;;
15246;SDS011;7726;48.820;9.248;2023-04-07T03:35:23;8.77;;;6.73;;
15246;SDS011;7726;48.820;9.248;2023-04-07T03:37:51;7.70;;;6.83;;
15246;SDS011;7726;48.820;9.248;2023-04-07T03:40:18;6.83;;;5.50;;
15246;SDS011;7726;48.820;9.248;2023-04-07T03:42:45;7.73;;;6.30;;
15246;SDS011;7726;48.820;9.248;2023-04-07T03:45:13;9.40;;;6.03;;
15246;SDS011;7726;48.820;9.248;2023-04-07T03:47:41;7.10;;;6.23;;
15246;SDS011;7726;48.820;9.248;2023-04-07T03:50:09;6.73;;;6.03;;
15246;SDS011;7726;48.820;9.248;2023-04-07T03:52:36;9.57;;;6.33;;
15246;SDS011;7726;48.820;9.248;2023-04-07T03:55:03;7.63;;;6.43;;
15246;SDS011;7726;48.820;9.248;2023-04-07T03:57:31;7.60;;;6.23;;
15246;SDS011;7726;48.820;9.248;2023-04-07T03:59:58;7.63;;;6.70;;
15246;SDS011;7726;48.820;9.248;2023-04-07T04:02:25;8.27;;;7.03;;
15246;SDS011;7726;48.820;9.248;2023-04-07T04:04:53;7.13;;;6.43;;
15246;SDS011;7726;48.820;9.248;2023-04-07T04:07:21;8.17;;;6.50;;
15246;SDS011;7726;48.820;9.248;2023-04-07T04:09:50;7.47;;;6.67;;
15246;SDS011;7726;48.820;9.248;2023-04-07T04:12:17;8.70;;;7.10;;
15246;SDS011;7726;48.820;9.248;2023-04-07T04:14:44;7.50;;;6.30;;
15246;SDS011;7726;48.820;9.248;2023-04-07T04:17:11;10.53;;;7.37;;
15246;SDS011;7726;48.820;9.248;2023-04-07T04:19:38;9.50;;;7.23;;
15246;SDS011;7726;48.820;9.248;2023-04-07T04:22:07;8.27;;;6.70;;
15246;SDS011;7726;48.820;9.248;2023-04-07T04:24:34;9.43;;;6.73;;
15246;SDS011;7726;48.820;9.248;2023-04-07T04:27:01;8.30;;;7.40;;
15246;SDS011;7726;48.820;9.248;2023-04-07T04:29:28;7.80;;;6.43;;
15246;SDS011;7726;48.820;9.248;2023-04-07T04:31:55;6.87;;;6.17;;
15246;SDS011;7726;48.820;9.248;2023-04-07T04:34:22;7.30;;;6.60;;
15246;SDS011;7726;48.820;9.248;2023-04-07T04:36:50;8.83;;;6.90;;
15246;SDS011;7726;48.820;9.248;2023-04-07T04:39:18;7.93;;;7.07;;
15246;SDS011;7726;48.820;9.248;2023-04-07T04:41:45;7.63;;;6.57;;
15246;SDS011;7726;48.820;9.248;2023-04-07T04:44:13;8.33;;;7.43;;
15246;SDS011;7726;48.820;9.248;2023-04-07T04:46:40;7.23;;;6.53;;
15246;SDS011;7726;48.820;9.248;2023-04-07T04:49:07;7.87;;;6.80;;
15246;SDS011;7726;48.820;9.248;2023-04-07T04:51:34;8.43;;;7.27;;
15246;SDS011;7726;48.820;9.248;2023-04-07T04:54:01;7.80;;;6.87;;
15246;SDS011;7726;48.820;9.248;2023-04-07T04:56:31;9.50;;;6.50;;
15246;SDS011;7726;48.820;9.248;2023-04-07T04:58:58;8.50;;;6.80;;
15246;SDS011;7726;48.820;9.248;2023-04-07T05:01:25;7.97;;;6.80;;
15246;SDS011;7726;48.820;9.248;2023-04-07T05:03:53;7.57;;;6.77;;
15246;SDS011;7726;48.820;9.248;2023-04-07T05:06:20;10.50;;;7.70;;
15246;SDS011;7726;48.820;9.248;2023-04-07T05:08:47;9.17;;;7.57;;
15246;SDS011;7726;48.820;9.248;2023-04-07T05:11:15;8.47;;;7.27;;
15246;SDS011;7726;48.820;9.248;2023-04-07T05:13:43;8.33;;;7.27;;
15246;SDS011;7726;48.820;9.248;2023-04-07T05:16:10;8.10;;;7.07;;
15246;SDS011;7726;48.820;9.248;2023-04-07T05:18:37;7.70;;;6.83;;
15246;SDS011;7726;48.820;9.248;2023-04-07T05:21:05;7.90;;;7.10;;
15246;SDS011;7726;48.820;9.248;2023-04-07T05:23:32;9.03;;;6.67;;
15246;SDS011;7726;48.820;9.248;2023-04-07T05:26:00;8.57;;;7.17;;
15246;SDS011;7726;48.820;9.248;2023-04-07T05:28:27;8.40;;;7.20;;
15246;SDS011;7726;48.820;9.248;2023-04-07T05:30:55;8.30;;;7.03;;
15246;SDS011;7726;48.820;9.248;2023-04-07T05:33:22;10.10;;;7.37;;
15246;SDS011;7726;48.820;9.248;2023-04-07T05:35:50;10.27;;;7.27;;
15246;SDS011;7726;48.820;9.248;2023-04-07T05:38:17;7.53;;;6.73;;
15246;SDS011;7726;48.820;9.248;2023-04-07T05:40:44;9.40;;;7.33;;
15246;SDS011;7726;48.820;9.248;2023-04-07T05:43:12;9.50;;;6.83;;
15246;SDS011;7726;48.820;9.248;2023-04-07T05:45:39;7.43;;;6.60;;
15246;SDS011;7726;48.820;9.248;2023-04-07T05:48:08;7.93;;;6.90;;
15246;SDS011;7726;48.820;9.248;2023-04-07T05:50:35;8.83;;;7.77;;
15246;SDS011;7726;48.820;9.248;2023-04-07T05:53:02;8.97;;;7.03;;
15246;SDS011;7726;48.820;9.248;2023-04-07T05:55:29;8.63;;;7.50;;
15246;SDS011;7726;48.820;9.248;2023-04-07T05:57:56;8.30;;;7.40;;
15246;SDS011;7726;48.820;9.248;2023-04-07T06:00:24;8.53;;;7.63;;
15246;SDS011;7726;48.820;9.248;2023-04-07T06:02:51;9.33;;;7.13;;
15246;SDS011;7726;48.820;9.248;2023-04-07T06:05:19;8.27;;;7.13;;
15246;SDS011;7726;48.820;9.248;2023-04-07T06:07:47;7.43;;;6.70;;
15246;SDS011;7726;48.820;9.248;2023-04-07T06:10:14;10.53;;;7.77;;
15246;SDS011;7726;48.820;9.248;2023-04-07T06:12:41;8.07;;;7.27;;
15246;SDS011;7726;48.820;9.248;2023-04-07T06:15:08;10.70;;;7.80;;
15246;SDS011;7726;48.820;9.248;2023-04-07T06:17:36;9.47;;;7.40;;
15246;SDS011;7726;48.820;9.248;2023-04-07T06:20:03;7.97;;;6.90;;
15246;SDS011;7726;48.820;9.248;2023-04-07T06:22:32;9.37;;;7.33;;
15246;SDS011;7726;48.820;9.248;2023-04-07T06:24:59;8.97;;;7.70;;
15246;SDS011;7726;48.820;9.248;2023-04-07T06:27:26;8.00;;;7.13;;
15246;SDS011;7726;48.820;9.248;2023-04-07T06:29:54;7.90;;;6.93;;
15246;SDS011;7726;48.820;9.248;2023-04-07T06:32:22;8.47;;;6.97;;
15246;SDS011;7726;48.820;9.248;2023-04-07T06:34:49;8.93;;;7.67;;
15246;SDS011;7726;48.820;9.248;2023-04-07T06:37:16;8.70;;;7.70;;
15246;SDS011;7726;48.820;9.248;2023-04-07T06:39:45;8.57;;;7.67;;
15246;SDS011;7726;48.820;9.248;2023-04-07T06:42:12;8.67;;;7.13;;
15246;SDS011;7726;48.820;9.248;2023-04-07T06:44:39;9.57;;;7.63;;
15246;SDS011;7726;48.820;9.248;2023-04-07T06:47:06;7.60;;;6.80;;
15246;SDS011;7726;48.820;9.248;2023-04-07T06:49:33;8.77;;;7.50;;
15246;SDS011;7726;48.820;9.248;2023-04-07T06:52:00;8.13;;;7.33;;
15246;SDS011;7726;48.820;9.248;2023-04-07T06:54:28;8.50;;;7.60;;
15246;SDS011;7726;48.820;9.248;2023-04-07T06:56:58;8.37;;;7.07;;
15246;SDS011;7726;48.820;9.248;2023-04-07T06:59:25;9.23;;;7.17;;
15246;SDS011;7726;48.820;9.248;2023-04-07T07:01:52;8.37;;;7.47;;
15246;SDS011;7726;48.820;9.248;2023-04-07T07:04:20;8.13;;;7.33;;
15246;SDS011;7726;48.820;9.248;2023-04-07T07:06:47;8.57;;;7.63;;
15246;SDS011;7726;48.820;9.248;2023-04-07T07:09:14;10.10;;;8.13;;
15246;SDS011;7726;48.820;9.248;2023-04-07T07:11:42;8.30;;;7.37;;
15246;SDS011;7726;48.820;9.248;2023-04-07T07:14:10;8.90;;;8.00;;
15246;SDS011;7726;48.820;9.248;2023-04-07T07:16:37;9.50;;;8.20;;
15246;SDS011;7726;48.820;9.248;2023-04-07T07:19:05;9.27;;;7.60;;
15246;SDS011;7726;48.820;9.248;2023-04-07T07:21:32;8.20;;;6.87;;
15246;SDS011;7726;48.820;9.248;2023-04-07T07:23:59;9.00;;;7.00;;
15246;SDS011;7726;48.820;9.248;2023-04-07T07:26:26;8.10;;;7.23;;
15246;SDS011;7726;48.820;9.248;2023-04-07T07:28:53;8.57;;;7.47;;
15246;SDS011;7726;48.820;9.248;2023-04-07T07:31:22;7.43;;;6.63;;
15246;SDS011;7726;48.820;9.248;2023-04-07T07:33:49;8.90;;;8.00;;
15246;SDS011;7726;48.820;9.248;2023-04-07T07:36:16;8.13;;;7.20;;
15246;SDS011;7726;48.820;9.248;2023-04-07T07:38:43;7.67;;;6.80;;
15246;SDS011;7726;48.820;9.248;2023-04-07T07:41:11;9.47;;;7.40;;
15246;SDS011;7726;48.820;9.248;2023-04-07T07:43:38;10.53;;;7.50;;
15246;SDS011;7726;48.820;9.248;2023-04-07T07:46:05;9.40;;;7.80;;
15246;SDS011;7726;48.820;9.248;2023-04-07T07:48:33;8.23;;;7.30;;
15246;SDS011;7726;48.820;9.248;2023-04-07T07:51:00;7.87;;;7.17;;
15246;SDS011;7726;48.820;9.248;2023-04-07T07:53:28;8.10;;;6.63;;
15246;SDS011;7726;48.820;9.248;2023-04-07T07:55:55;7.60;;;6.77;;
15246;SDS011;7726;48.820;9.248;2023-04-07T07:58:22;7.87;;;6.47;;
15246;SDS011;7726;48.820;9.248;2023-04-07T08:00:49;7.73;;;6.57;;
15246;SDS011;7726;48.820;9.248;2023-04-07T08:03:16;8.97;;;6.53;;
15246;SDS011;7726;48.820;9.248;2023-04-07T08:05:47;6.77;;;6.03;;
15246;SDS011;7726;48.820;9.248;2023-04-07T08:08:15;6.83;;;6.13;;
15246;SDS011;7726;48.820;9.248;2023-04-07T08:10:42;6.87;;;6.17;;
15246;SDS011;7726;48.820;9.248;2023-04-07T08:13:09;6.82;;;5.45;;
15246;SDS011;7726;48.820;9.248;2023-04-07T08:15:36;6.63;;;5.68;;
15246;SDS011;7726;48.820;9.248;2023-04-07T08:18:03;6.93;;;6.22;;
15246;SDS011;7726;48.820;9.248;2023-04-07T08:20:31;6.38;;;5.80;;
15246;SDS011;7726;48.820;9.248;2023-04-07T08:23:00;6.30;;;5.70;;
15246;SDS011;7726;48.820;9.248;2023-04-07T08:25:27;5.95;;;5.32;;
15246;SDS011;7726;48.820;9.248;2023-04-07T08:27:54;6.13;;;5.45;;
15246;SDS011;7726;48.820;9.248;2023-04-07T08:30:22;5.82;;;5.30;;
15246;SDS011;7726;48.820;9.248;2023-04-07T08:32:49;5.13;;;4.72;;
15246;SDS011;7726;48.820;9.248;2023-04-07T08:35:16;5.55;;;5.00;;
15246;SDS011;7726;48.820;9.248;2023-04-07T08:37:43;6.47;;;5.03;;
15246;SDS011;7726;48.820;9.248;2023-04-07T08:40:12;5.72;;;4.30;;
15246;SDS011;7726;48.820;9.248;2023-04-07T08:42:40;5.10;;;4.60;;
15246;SDS011;7726;48.820;9.248;2023-04-07T08:45:08;6.63;;;4.93;;
15246;SDS011;7726;48.820;9.248;2023-04-07T08:47:36;4.65;;;4.10;;
15246;SDS011;7726;48.820;9.248;2023-04-07T08:50:04;5.32;;;4.82;;
15246;SDS011;7726;48.820;9.248;2023-04-07T08:52:32;8.25;;;5.13;;
15246;SDS011;7726;48.820;9.248;2023-04-07T08:55:00;6.88;;;4.93;;
15246;SDS011;7726;48.820;9.248;2023-04-07T08:57:29;5.28;;;4.78;;
15246;SDS011;7726;48.820;9.248;2023-04-07T08:59:57;6.25;;;4.85;;
15246;SDS011;7726;48.820;9.248;2023-04-07T09:02:26;5.78;;;5.13;;
15246;SDS011;7726;48.820;9.248;2023-04-07T09:04:54;5.50;;;4.93;;
15246;SDS011;7726;48.820;9.248;2023-04-07T09:07:21;5.93;;;5.25;;
15246;SDS011;7726;48.820;9.248;2023-04-07T09:09:48;7.63;;;5.25;;
15246;SDS011;7726;48.820;9.248;2023-04-07T09:12:16;6.30;;;5.32;;
15246;SDS011;7726;48.820;9.248;2023-04-07T09:14:44;5.90;;;4.88;;
15246;SDS011;7726;48.820;9.248;2023-04-07T09:17:12;5.70;;;4.97;;
15246;SDS011;7726;48.820;9.248;2023-04-07T09:19:39;6.25;;;4.82;;
15246;SDS011;7726;48.820;9.248;2023-04-07T09:22:06;5.85;;;4.82;;
15246;SDS011;7726;48.820;9.248;2023-04-07T09:24:36;5.85;;;5.00;;
15246;SDS011;7726;48.820;9.248;2023-04-07T09:27:10;8.30;;;5.28;;
15246;SDS011;7726;48.820;9.248;2023-04-07T09:29:39;6.78;;;5.07;;
15246;SDS011;7726;48.820;9.248;2023-04-07T09:32:08;8.23;;;5.20;;
15246;SDS011;7726;48.820;9.248;2023-04-07T09:34:35;6.18;;;5.57;;
15246;SDS011;7726;48.820;9.248;2023-04-07T09:37:03;5.75;;;5.15;;
15246;SDS011;7726;48.820;9.248;2023-04-07T09:39:31;5.88;;;5.28;;
15246;SDS011;7726;48.820;9.248;2023-04-07T09:41:58;6.10;;;5.50;;
15246;SDS011;7726;48.820;9.248;2023-04-07T09:44:38;6.60;;;5.07;;
15246;SDS011;7726;48.820;9.248;2023-04-07T09:47:05;5.90;;;5.03;;
15246;SDS011;7726;48.820;9.248;2023-04-07T09:49:47;7.97;;;5.35;;
15246;SDS011;7726;48.820;9.248;2023-04-07T09:52:15;6.50;;;5.18;;
15246;SDS011;7726;48.820;9.248;2023-04-07T09:54:44;5.47;;;4.97;;
15246;SDS011;7726;48.820;9.248;2023-04-07T09:57:12;8.10;;;5.10;;
15246;SDS011;7726;48.820;9.248;2023-04-07T09:59:41;5.35;;;4.82;;
15246;SDS011;7726;48.820;9.248;2023-04-07T10:02:09;6.50;;;5.18;;
15246;SDS011;7726;48.820;9.248;2023-04-07T10:04:38;10.35;;;5.53;;
15246;SDS011;7726;48.820;9.248;2023-04-07T10:07:06;7.70;;;5.15;;
15246;SDS011;7726;48.820;9.248;2023-04-07T10:09:33;7.55;;;5.00;;
15246;SDS011;7726;48.820;9.248;2023-04-07T10:12:00;5.57;;;5.13;;
15246;SDS011;7726;48.820;9.248;2023-04-07T10:14:29;5.85;;;5.20;;
15246;SDS011;7726;48.820;9.248;2023-04-07T10:16:56;6.93;;;4.85;;
15246;SDS011;7726;48.820;9.248;2023-04-07T10:19:25;6.78;;;5.38;;
15246;SDS011;7726;48.820;9.248;2023-04-07T10:21:57;5.95;;;4.97;;
15246;SDS011;7726;48.820;9.248;2023-04-07T10:24:36;7.40;;;5.30;;
15246;SDS011;7726;48.820;9.248;2023-04-07T10:27:08;7.65;;;4.65;;
15246;SDS011;7726;48.820;9.248;2023-04-07T10:29:37;7.70;;;5.20;;
15246;SDS011;7726;48.820;9.248;2023-04-07T10:32:06;6.63;;;5.80;;
15246;SDS011;7726;48.820;9.248;2023-04-07T10:37:26;8.63;;;5.57;;
15246;SDS011;7726;48.820;9.248;2023-04-07T10:42:45;5.05;;;4.55;;
15246;SDS011;7726;48.820;9.248;2023-04-07T10:45:12;7.07;;;4.07;;
15246;SDS011;7726;48.820;9.248;2023-04-07T10:50:22;7.05;;;4.97;;
15246;SDS011;7726;48.820;9.248;2023-04-07T10:53:03;6.27;;;5.13;;
15246;SDS011;7726;48.820;9.248;2023-04-07T10:55:33;6.03;;;5.03;;
15246;SDS011;7726;48.820;9.248;2023-04-07T11:01:16;8.80;;;4.35;;
15246;SDS011;7726;48.820;9.248;2023-04-07T11:03:57;6.50;;;4.60;;
15246;SDS011;7726;48.820;9.248;2023-04-07T11:06:24;5.47;;;4.65;;
15246;SDS011;7726;48.820;9.248;2023-04-07T11:08:53;8.80;;;4.45;;
15246;SDS011;7726;48.820;9.248;2023-04-07T11:11:36;7.63;;;5.33;;
15246;SDS011;7726;48.820;9.248;2023-04-07T11:14:03;5.15;;;4.40;;
15246;SDS011;7726;48.820;9.248;2023-04-07T11:16:35;5.60;;;4.47;;
15246;SDS011;7726;48.820;9.248;2023-04-07T11:19:02;8.35;;;4.88;;
15246;SDS011;7726;48.820;9.248;2023-04-07T11:21:29;6.28;;;4.43;;
15246;SDS011;7726;48.820;9.248;2023-04-07T11:23:58;4.93;;;4.43;;
15246;SDS011;7726;48.820;9.248;2023-04-07T11:26:25;9.02;;;4.40;;
15246;SDS011;7726;48.820;9.248;2023-04-07T11:28:54;4.45;;;4.05;;
15246;SDS011;7726;48.820;9.248;2023-04-07T11:31:23;4.65;;;4.25;;
15246;SDS011;7726;48.820;9.248;2023-04-07T11:33:51;8.05;;;4.82;;
15246;SDS011;7726;48.820;9.248;2023-04-07T11:36:25;6.30;;;4.28;;
15246;SDS011;7726;48.820;9.248;2023-04-07T11:38:52;5.20;;;4.70;;
15246;SDS011;7726;48.820;9.248;2023-04-07T11:41:21;4.28;;;3.88;;
15246;SDS011;7726;48.820;9.248;2023-04-07T11:43:56;5.35;;;4.50;;
15246;SDS011;7726;48.820;9.248;2023-04-07T11:46:29;6.50;;;4.03;;
15246;SDS011;7726;48.820;9.248;2023-04-07T11:49:06;5.53;;;4.13;;
15246;SDS011;7726;48.820;9.248;2023-04-07T11:51:34;4.68;;;3.95;;
15246;SDS011;7726;48.820;9.248;2023-04-07T11:54:01;5.35;;;3.90;;
15246;SDS011;7726;48.820;9.248;2023-04-07T11:56:29;4.57;;;3.42;;
15246;SDS011;7726;48.820;9.248;2023-04-07T11:59:07;5.00;;;3.95;;
15246;SDS011;7726;48.820;9.248;2023-04-07T12:01:38;5.13;;;3.95;;
15246;SDS011;7726;48.820;9.248;2023-04-07T12:04:05;5.78;;;4.20;;
15246;SDS011;7726;48.820;9.248;2023-04-07T12:06:33;4.35;;;3.70;;
15246;SDS011;7726;48.820;9.248;2023-04-07T12:09:03;7.90;;;4.22;;
15246;SDS011;7726;48.820;9.248;2023-04-07T12:11:32;5.75;;;4.43;;
15246;SDS011;7726;48.820;9.248;2023-04-07T12:14:00;5.93;;;4.50;;
15246;SDS011;7726;48.820;9.248;2023-04-07T12:16:29;4.57;;;3.55;;
15246;SDS011;7726;48.820;9.248;2023-04-07T12:18:56;6.78;;;4.20;;
15246;SDS011;7726;48.820;9.248;2023-04-07T12:21:23;5.18;;;4.05;;
15246;SDS011;7726;48.820;9.248;2023-04-07T12:23:50;5.95;;;3.97;;
15246;SDS011;7726;48.820;9.248;2023-04-07T12:26:17;5.72;;;4.00;;
15246;SDS011;7726;48.820;9.248;2023-04-07T12:28:47;5.05;;;3.38;;
15246;SDS011;7726;48.820;9.248;2023-04-07T12:31:14;6.07;;;3.50;;
15246;SDS011;7726;48.820;9.248;2023-04-07T12:33:41;4.82;;;3.42;;
15246;SDS011;7726;48.820;9.248;2023-04-07T12:36:08;4.72;;;3.58;;
15246;SDS011;7726;48.820;9.248;2023-04-07T12:38:35;6.53;;;5.18;;
15246;SDS011;7726;48.820;9.248;2023-04-07T12:41:03;5.53;;;4.30;;
15246;SDS011;7726;48.820;9.248;2023-04-07T12:43:30;6.20;;;4.43;;
15246;SDS011;7726;48.820;9.248;2023-04-07T12:45:58;5.25;;;4.25;;
15246;SDS011;7726;48.820;9.248;2023-04-07T12:48:25;4.53;;;4.13;;
15246;SDS011;7726;48.820;9.248;2023-04-07T12:50:53;5.03;;;3.70;;
15246;SDS011;7726;48.820;9.248;2023-04-07T12:53:20;5.22;;;3.83;;
15246;SDS011;7726;48.820;9.248;2023-04-07T12:55:47;5.05;;;3.70;;
15246;SDS011;7726;48.820;9.248;2023-04-07T12:58:14;5.05;;;3.60;;
15246;SDS011;7726;48.820;9.248;2023-04-07T13:00:42;5.68;;;3.58;;
15246;SDS011;7726;48.820;9.248;2023-04-07T13:03:12;6.35;;;3.58;;
15246;SDS011;7726;48.820;9.248;2023-04-07T13:05:39;3.45;;;2.63;;
15246;SDS011;7726;48.820;9.248;2023-04-07T13:08:06;4.30;;;2.78;;
15246;SDS011;7726;48.820;9.248;2023-04-07T13:10:34;2.45;;;2.25;;
15246;SDS011;7726;48.820;9.248;2023-04-07T13:13:01;4.38;;;2.63;;
15246;SDS011;7726;48.820;9.248;2023-04-07T13:15:28;4.00;;;2.35;;
15246;SDS011;7726;48.820;9.248;2023-04-07T13:17:56;2.85;;;1.85;;
15246;SDS011;7726;48.820;9.248;2023-04-07T13:20:24;2.05;;;1.52;;
15246;SDS011;7726;48.820;9.248;2023-04-07T13:22:52;3.90;;;2.13;;
15246;SDS011;7726;48.820;9.248;2023-04-07T13:25:19;2.60;;;2.40;;
15246;SDS011;7726;48.820;9.248;2023-04-07T13:27:46;2.22;;;2.00;;
15246;SDS011;7726;48.820;9.248;2023-04-07T13:30:13;4.20;;;2.10;;
15246;SDS011;7726;48.820;9.248;2023-04-07T13:32:41;3.55;;;2.17;;
15246;SDS011;7726;48.820;9.248;2023-04-07T13:35:08;3.30;;;2.15;;
15246;SDS011;7726;48.820;9.248;2023-04-07T13:37:37;3.45;;;2.30;;
15246;SDS011;7726;48.820;9.248;2023-04-07T13:40:04;3.65;;;2.38;;
15246;SDS011;7726;48.820;9.248;2023-04-07T13:42:32;3.22;;;2.33;;
15246;SDS011;7726;48.820;9.248;2023-04-07T13:44:59;4.43;;;2.78;;
15246;SDS011;7726;48.820;9.248;2023-04-07T13:47:26;4.22;;;3.00;;
15246;SDS011;7726;48.820;9.248;2023-04-07T13:49:58;3.47;;;3.00;;
15246;SDS011;7726;48.820;9.248;2023-04-07T13:52:25;4.53;;;3.33;;
15246;SDS011;7726;48.820;9.248;2023-04-07T13:54:54;6.30;;;3.53;;
15246;SDS011;7726;48.820;9.248;2023-04-07T13:57:21;3.40;;;3.03;;
15246;SDS011;7726;48.820;9.248;2023-04-07T13:59:49;3.15;;;2.85;;
15246;SDS011;7726;48.820;9.248;2023-04-07T14:02:17;3.58;;;2.78;;
15246;SDS011;7726;48.820;9.248;2023-04-07T14:04:44;3.55;;;2.90;;
15246;SDS011;7726;48.820;9.248;2023-04-07T14:07:11;4.00;;;3.10;;
15246;SDS011;7726;48.820;9.248;2023-04-07T14:09:38;4.72;;;2.97;;
15246;SDS011;7726;48.820;9.248;2023-04-07T14:12:08;3.47;;;2.83;;
15246;SDS011;7726;48.820;9.248;2023-04-07T14:14:35;5.07;;;2.90;;
15246;SDS011;7726;48.820;9.248;2023-04-07T14:17:02;3.67;;;2.65;;
15246;SDS011;7726;48.820;9.248;2023-04-07T14:19:30;3.17;;;2.70;;
15246;SDS011;7726;48.820;9.248;2023-04-07T14:21:57;3.80;;;2.75;;
15246;SDS011;7726;48.820;9.248;2023-04-07T14:24:24;3.72;;;2.78;;
15246;SDS011;7726;48.820;9.248;2023-04-07T14:26:52;3.30;;;2.58;;
15246;SDS011;7726;48.820;9.248;2023-04-07T14:29:20;4.40;;;2.90;;
15246;SDS011;7726;48.820;9.248;2023-04-07T14:31:48;4.60;;;2.67;;
15246;SDS011;7726;48.820;9.248;2023-04-07T14:34:15;2.50;;;2.30;;
15246;SDS011;7726;48.820;9.248;2023-04-07T14:36:51;2.92;;;2.67;;
15246;SDS011;7726;48.820;9.248;2023-04-07T14:39:18;2.97;;;2.60;;
15246;SDS011;7726;48.820;9.248;2023-04-07T14:41:45;4.07;;;2.65;;
15246;SDS011;7726;48.820;9.248;2023-04-07T14:44:12;4.95;;;2.67;;
15246;SDS011;7726;48.820;9.248;2023-04-07T14:46:41;4.32;;;2.33;;
15246;SDS011;7726;48.820;9.248;2023-04-07T14:49:08;3.47;;;2.40;;
15246;SDS011;7726;48.820;9.248;2023-04-07T14:51:37;5.93;;;4.15;;
15246;SDS011;7726;48.820;9.248;2023-04-07T14:54:04;4.18;;;2.92;;
15246;SDS011;7726;48.820;9.248;2023-04-07T14:56:32;4.60;;;2.40;;
15246;SDS011;7726;48.820;9.248;2023-04-07T14:58:59;3.38;;;2.40;;
15246;SDS011;7726;48.820;9.248;2023-04-07T15:01:26;4.50;;;2.78;;
15246;SDS011;7726;48.820;9.248;2023-04-07T15:03:54;2.97;;;2.47;;
15246;SDS011;7726;48.820;9.248;2023-04-07T15:06:22;4.30;;;3.10;;
15246;SDS011;7726;48.820;9.248;2023-04-07T15:08:50;5.53;;;2.40;;
15246;SDS011;7726;48.820;9.248;2023-04-07T15:11:17;4.47;;;2.75;;
15246;SDS011;7726;48.820;9.248;2023-04-07T15:13:45;5.53;;;2.70;;
15246;SDS011;7726;48.820;9.248;2023-04-07T15:16:12;5.53;;;3.42;;